sensor_id;sensor_type;location;lat;lon;timestamp;P1;durP1;ratioP1;P2;durP2;ratioP2
8550;SDS011;4313;42.000;21.380;2023-11-21T00:01:37;28.13;;;19.10;;
8550;SDS011;4313;42.000;21.380;2023-11-21T00:04:04;33.20;;;24.70;;
8550;SDS011;4313;42.000;21.380;2023-11-21T00:06:35;39.53;;;27.10;;
8550;SDS011;4313;42.000;21.380;2023-11-21T00:09:02;46.17;;;32.23;;
8550;SDS011;4313;42.000;21.380;2023-11-21T00:11:30;33.90;;;24.17;;
8550;SDS011;4313;42.000;21.380;2023-11-21T00:13:57;30.37;;;22.77;;
8550;SDS011;4313;42.000;21.380;2023-11-21T00:16:24;29.23;;;20.87;;
8550;SDS011;4313;42.000;21.380;2023-11-21T00:18:51;32.87;;;22.23;;
8550;SDS011;4313;42.000;21.380;2023-11-21T00:21:17;34.07;;;21.87;;
8550;SDS011;4313;42.000;21.380;2023-11-21T00:23:46;27.93;;;20.47;;
8550;SDS011;4313;42.000;21.380;2023-11-21T00:26:13;25.53;;;20.43;;
8550;SDS011;4313;42.000;21.380;2023-11-21T00:28:42;26.17;;;21.47;;
8550;SDS011;4313;42.000;21.380;2023-11-21T00:31:10;22.90;;;18.57;;
8550;SDS011;4313;42.000;21.380;2023-11-21T00:33:38;30.93;;;21.40;;
8550;SDS011;4313;42.000;21.380;2023-11-21T00:36:06;22.97;;;18.77;;
8550;SDS011;4313;42.000;21.380;2023-11-21T00:38:35;23.83;;;18.63;;
8550;SDS011;4313;42.000;21.380;2023-11-21T00:41:04;26.10;;;17.23;;
8550;SDS011;4313;42.000;21.380;2023-11-21T00:43:34;23.03;;;17.70;;
8550;SDS011;4313;42.000;21.380;2023-11-21T00:46:03;24.33;;;17.93;;
8550;SDS011;4313;42.000;21.380;2023-11-21T00:48:32;24.43;;;18.07;;
8550;SDS011;4313;42.000;21.380;2023-11-21T00:50:59;25.33;;;18.40;;
8550;SDS011;4313;42.000;21.380;2023-11-21T00:53:26;21.43;;;17.43;;
8550;SDS011;4313;42.000;21.380;2023-11-21T00:55:53;28.00;;;19.70;;
8550;SDS011;4313;42.000;21.380;2023-11-21T00:58:24;31.30;;;21.43;;
8550;SDS011;4313;42.000;21.380;2023-11-21T01:00:51;35.90;;;24.60;;
8550;SDS011;4313;42.000;21.380;2023-11-21T01:03:18;40.43;;;26.40;;
8550;SDS011;4313;42.000;21.380;2023-11-21T01:05:45;36.93;;;24.67;;
8550;SDS011;4313;42.000;21.380;2023-11-21T01:08:14;33.73;;;24.90;;
8550;SDS011;4313;42.000;21.380;2023-11-21T01:10:42;49.90;;;31.40;;
8550;SDS011;4313;42.000;21.380;2023-11-21T01:13:09;43.70;;;28.07;;
8550;SDS011;4313;42.000;21.380;2023-11-21T01:15:38;142.90;;;72.00;;
8550;SDS011;4313;42.000;21.380;2023-11-21T01:18:05;89.17;;;47.77;;
8550;SDS011;4313;42.000;21.380;2023-11-21T01:20:31;68.90;;;37.27;;
8550;SDS011;4313;42.000;21.380;2023-11-21T01:22:58;45.20;;;26.90;;
8550;SDS011;4313;42.000;21.380;2023-11-21T01:25:26;41.43;;;25.20;;
8550;SDS011;4313;42.000;21.380;2023-11-21T01:27:53;27.13;;;18.00;;
8550;SDS011;4313;42.000;21.380;2023-11-21T01:30:22;28.03;;;19.13;;
8550;SDS011;4313;42.000;21.380;2023-11-21T01:32:53;34.97;;;22.00;;
8550;SDS011;4313;42.000;21.380;2023-11-21T01:35:20;67.43;;;35.27;;
8550;SDS011;4313;42.000;21.380;2023-11-21T01:37:47;71.87;;;40.23;;
8550;SDS011;4313;42.000;21.380;2023-11-21T01:40:14;114.10;;;55.33;;
8550;SDS011;4313;42.000;21.380;2023-11-21T01:42:42;75.80;;;41.90;;
8550;SDS011;4313;42.000;21.380;2023-11-21T01:45:10;75.33;;;37.77;;
8550;SDS011;4313;42.000;21.380;2023-11-21T01:47:38;81.60;;;41.07;;
8550;SDS011;4313;42.000;21.380;2023-11-21T01:50:07;73.43;;;37.80;;
8550;SDS011;4313;42.000;21.380;2023-11-21T01:52:37;29.77;;;20.23;;
8550;SDS011;4313;42.000;21.380;2023-11-21T01:55:06;24.27;;;16.87;;
8550;SDS011;4313;42.000;21.380;2023-11-21T01:57:35;25.20;;;16.60;;
8550;SDS011;4313;42.000;21.380;2023-11-21T02:00:04;33.57;;;22.90;;
8550;SDS011;4313;42.000;21.380;2023-11-21T02:02:41;20.90;;;16.87;;
8550;SDS011;4313;42.000;21.380;2023-11-21T02:05:10;22.10;;;17.53;;
8550;SDS011;4313;42.000;21.380;2023-11-21T02:07:42;21.13;;;16.00;;
8550;SDS011;4313;42.000;21.380;2023-11-21T02:10:09;24.80;;;16.30;;
8550;SDS011;4313;42.000;21.380;2023-11-21T02:12:39;23.30;;;17.47;;
8550;SDS011;4313;42.000;21.380;2023-11-21T02:15:10;22.33;;;16.83;;
8550;SDS011;4313;42.000;21.380;2023-11-21T02:17:42;23.87;;;17.27;;
8550;SDS011;4313;42.000;21.380;2023-11-21T02:20:11;22.87;;;17.30;;
8550;SDS011;4313;42.000;21.380;2023-11-21T02:22:43;25.07;;;17.37;;
8550;SDS011;4313;42.000;21.380;2023-11-21T02:25:13;23.37;;;19.53;;
8550;SDS011;4313;42.000;21.380;2023-11-21T02:27:40;22.90;;;18.73;;
8550;SDS011;4313;42.000;21.380;2023-11-21T02:30:09;23.90;;;18.00;;
8550;SDS011;4313;42.000;21.380;2023-11-21T02:32:38;24.43;;;18.50;;
8550;SDS011;4313;42.000;21.380;2023-11-21T02:35:08;26.00;;;19.87;;
8550;SDS011;4313;42.000;21.380;2023-11-21T02:37:35;23.20;;;18.63;;
8550;SDS011;4313;42.000;21.380;2023-11-21T02:40:07;23.67;;;18.13;;
8550;SDS011;4313;42.000;21.380;2023-11-21T02:42:39;26.40;;;18.63;;
8550;SDS011;4313;42.000;21.380;2023-11-21T02:45:06;28.07;;;19.67;;
8550;SDS011;4313;42.000;21.380;2023-11-21T02:47:34;26.07;;;21.07;;
8550;SDS011;4313;42.000;21.380;2023-11-21T02:50:01;32.10;;;21.20;;
8550;SDS011;4313;42.000;21.380;2023-11-21T02:52:28;56.27;;;33.37;;
8550;SDS011;4313;42.000;21.380;2023-11-21T02:54:58;27.40;;;19.47;;
8550;SDS011;4313;42.000;21.380;2023-11-21T02:57:45;23.43;;;18.33;;
8550;SDS011;4313;42.000;21.380;2023-11-21T03:00:12;22.40;;;16.97;;
8550;SDS011;4313;42.000;21.380;2023-11-21T03:02:43;23.53;;;17.53;;
8550;SDS011;4313;42.000;21.380;2023-11-21T03:05:28;25.57;;;17.97;;
8550;SDS011;4313;42.000;21.380;2023-11-21T03:07:55;25.97;;;19.50;;
8550;SDS011;4313;42.000;21.380;2023-11-21T03:10:22;30.23;;;22.47;;
8550;SDS011;4313;42.000;21.380;2023-11-21T03:12:51;28.93;;;21.83;;
8550;SDS011;4313;42.000;21.380;2023-11-21T03:15:17;30.67;;;24.73;;
8550;SDS011;4313;42.000;21.380;2023-11-21T03:17:44;27.93;;;20.93;;
8550;SDS011;4313;42.000;21.380;2023-11-21T03:20:14;27.77;;;20.23;;
8550;SDS011;4313;42.000;21.380;2023-11-21T03:22:41;24.43;;;18.33;;
8550;SDS011;4313;42.000;21.380;2023-11-21T03:25:10;24.80;;;18.70;;
8550;SDS011;4313;42.000;21.380;2023-11-21T03:27:38;23.63;;;17.93;;
8550;SDS011;4313;42.000;21.380;2023-11-21T03:30:07;22.40;;;17.50;;
8550;SDS011;4313;42.000;21.380;2023-11-21T03:32:36;22.37;;;18.57;;
8550;SDS011;4313;42.000;21.380;2023-11-21T03:35:03;21.60;;;17.90;;
8550;SDS011;4313;42.000;21.380;2023-11-21T03:37:31;23.33;;;18.23;;
8550;SDS011;4313;42.000;21.380;2023-11-21T03:39:59;23.80;;;17.97;;
8550;SDS011;4313;42.000;21.380;2023-11-21T03:42:26;23.43;;;18.67;;
8550;SDS011;4313;42.000;21.380;2023-11-21T03:44:56;24.53;;;17.53;;
8550;SDS011;4313;42.000;21.380;2023-11-21T03:47:25;25.17;;;18.93;;
8550;SDS011;4313;42.000;21.380;2023-11-21T03:49:55;25.43;;;18.53;;
8550;SDS011;4313;42.000;21.380;2023-11-21T03:52:23;23.07;;;18.47;;
8550;SDS011;4313;42.000;21.380;2023-11-21T03:54:51;27.70;;;21.27;;
8550;SDS011;4313;42.000;21.380;2023-11-21T03:57:18;22.97;;;18.57;;
8550;SDS011;4313;42.000;21.380;2023-11-21T03:59:45;25.90;;;19.53;;
8550;SDS011;4313;42.000;21.380;2023-11-21T04:02:12;32.07;;;24.17;;
8550;SDS011;4313;42.000;21.380;2023-11-21T04:04:40;27.57;;;20.17;;
8550;SDS011;4313;42.000;21.380;2023-11-21T04:07:07;30.20;;;19.10;;
8550;SDS011;4313;42.000;21.380;2023-11-21T04:09:35;22.70;;;17.47;;
8550;SDS011;4313;42.000;21.380;2023-11-21T04:12:02;25.43;;;18.03;;
8550;SDS011;4313;42.000;21.380;2023-11-21T04:14:30;27.43;;;20.50;;
8550;SDS011;4313;42.000;21.380;2023-11-21T04:16:57;27.83;;;21.13;;
8550;SDS011;4313;42.000;21.380;2023-11-21T04:19:24;26.53;;;20.07;;
8550;SDS011;4313;42.000;21.380;2023-11-21T04:21:52;30.70;;;22.67;;
8550;SDS011;4313;42.000;21.380;2023-11-21T04:24:22;25.97;;;20.67;;
8550;SDS011;4313;42.000;21.380;2023-11-21T04:26:49;25.33;;;18.57;;
8550;SDS011;4313;42.000;21.380;2023-11-21T04:29:16;26.23;;;18.13;;
8550;SDS011;4313;42.000;21.380;2023-11-21T04:31:43;34.20;;;23.67;;
8550;SDS011;4313;42.000;21.380;2023-11-21T04:34:10;32.47;;;21.77;;
8550;SDS011;4313;42.000;21.380;2023-11-21T04:36:37;28.23;;;20.33;;
8550;SDS011;4313;42.000;21.380;2023-11-21T04:39:05;24.27;;;19.03;;
8550;SDS011;4313;42.000;21.380;2023-11-21T04:41:32;25.90;;;18.77;;
8550;SDS011;4313;42.000;21.380;2023-11-21T04:43:59;22.07;;;16.93;;
8550;SDS011;4313;42.000;21.380;2023-11-21T04:46:29;22.67;;;17.40;;
8550;SDS011;4313;42.000;21.380;2023-11-21T04:48:59;19.63;;;16.30;;
8550;SDS011;4313;42.000;21.380;2023-11-21T04:51:26;20.37;;;16.90;;
8550;SDS011;4313;42.000;21.380;2023-11-21T04:53:53;23.17;;;17.97;;
8550;SDS011;4313;42.000;21.380;2023-11-21T04:56:21;21.47;;;17.70;;
8550;SDS011;4313;42.000;21.380;2023-11-21T04:59:07;22.13;;;16.70;;
8550;SDS011;4313;42.000;21.380;2023-11-21T05:01:34;22.23;;;17.63;;
8550;SDS011;4313;42.000;21.380;2023-11-21T05:04:01;22.90;;;18.80;;
8550;SDS011;4313;42.000;21.380;2023-11-21T05:06:31;27.87;;;20.07;;
8550;SDS011;4313;42.000;21.380;2023-11-21T05:08:58;24.63;;;20.13;;
8550;SDS011;4313;42.000;21.380;2023-11-21T05:11:26;24.30;;;19.67;;
8550;SDS011;4313;42.000;21.380;2023-11-21T05:13:54;26.03;;;20.27;;
8550;SDS011;4313;42.000;21.380;2023-11-21T05:16:25;24.30;;;19.17;;
8550;SDS011;4313;42.000;21.380;2023-11-21T05:18:52;24.87;;;19.70;;
8550;SDS011;4313;42.000;21.380;2023-11-21T05:21:21;25.47;;;20.57;;
8550;SDS011;4313;42.000;21.380;2023-11-21T05:24:08;26.17;;;19.70;;
8550;SDS011;4313;42.000;21.380;2023-11-21T05:26:39;29.50;;;21.87;;
8550;SDS011;4313;42.000;21.380;2023-11-21T05:29:24;33.17;;;22.33;;
8550;SDS011;4313;42.000;21.380;2023-11-21T05:31:51;30.67;;;21.70;;
8550;SDS011;4313;42.000;21.380;2023-11-21T05:34:19;34.57;;;21.47;;
8550;SDS011;4313;42.000;21.380;2023-11-21T05:36:49;33.53;;;23.17;;
8550;SDS011;4313;42.000;21.380;2023-11-21T05:39:16;31.43;;;21.83;;
8550;SDS011;4313;42.000;21.380;2023-11-21T05:41:45;28.70;;;22.13;;
8550;SDS011;4313;42.000;21.380;2023-11-21T05:44:12;31.33;;;22.33;;
8550;SDS011;4313;42.000;21.380;2023-11-21T05:46:40;35.83;;;23.53;;
8550;SDS011;4313;42.000;21.380;2023-11-21T05:49:08;30.63;;;21.73;;
8550;SDS011;4313;42.000;21.380;2023-11-21T05:51:35;31.07;;;20.57;;
8550;SDS011;4313;42.000;21.380;2023-11-21T05:54:03;29.43;;;20.20;;
8550;SDS011;4313;42.000;21.380;2023-11-21T05:56:30;27.90;;;20.10;;
8550;SDS011;4313;42.000;21.380;2023-11-21T05:58:59;26.80;;;20.00;;
8550;SDS011;4313;42.000;21.380;2023-11-21T06:01:27;29.00;;;21.70;;
8550;SDS011;4313;42.000;21.380;2023-11-21T06:03:54;24.37;;;19.27;;
8550;SDS011;4313;42.000;21.380;2023-11-21T06:06:21;29.60;;;23.50;;
8550;SDS011;4313;42.000;21.380;2023-11-21T06:08:50;28.60;;;24.93;;
8550;SDS011;4313;42.000;21.380;2023-11-21T06:11:17;31.70;;;24.63;;
8550;SDS011;4313;42.000;21.380;2023-11-21T06:13:43;37.80;;;25.40;;
8550;SDS011;4313;42.000;21.380;2023-11-21T06:16:12;39.80;;;27.43;;
8550;SDS011;4313;42.000;21.380;2023-11-21T06:18:42;43.13;;;29.00;;
8550;SDS011;4313;42.000;21.380;2023-11-21T06:21:10;43.90;;;32.63;;
8550;SDS011;4313;42.000;21.380;2023-11-21T06:23:37;55.43;;;37.93;;
8550;SDS011;4313;42.000;21.380;2023-11-21T06:26:04;47.33;;;33.00;;
8550;SDS011;4313;42.000;21.380;2023-11-21T06:28:31;43.70;;;29.70;;
8550;SDS011;4313;42.000;21.380;2023-11-21T06:30:58;50.77;;;30.80;;
8550;SDS011;4313;42.000;21.380;2023-11-21T06:33:31;42.47;;;29.17;;
8550;SDS011;4313;42.000;21.380;2023-11-21T06:35:58;43.43;;;29.23;;
8550;SDS011;4313;42.000;21.380;2023-11-21T06:38:28;39.47;;;28.20;;
8550;SDS011;4313;42.000;21.380;2023-11-21T06:40:58;35.90;;;27.57;;
8550;SDS011;4313;42.000;21.380;2023-11-21T06:43:27;40.00;;;29.70;;
8550;SDS011;4313;42.000;21.380;2023-11-21T06:45:54;35.53;;;29.37;;
8550;SDS011;4313;42.000;21.380;2023-11-21T06:48:21;31.80;;;22.60;;
8550;SDS011;4313;42.000;21.380;2023-11-21T06:50:49;29.25;;;24.85;;
8550;SDS011;4313;42.000;21.380;2023-11-21T06:53:17;20.45;;;17.48;;
8550;SDS011;4313;42.000;21.380;2023-11-21T06:55:45;19.65;;;17.05;;
8550;SDS011;4313;42.000;21.380;2023-11-21T06:58:13;22.73;;;20.33;;
8550;SDS011;4313;42.000;21.380;2023-11-21T07:00:40;18.38;;;15.80;;
8550;SDS011;4313;42.000;21.380;2023-11-21T07:03:11;18.30;;;16.38;;
8550;SDS011;4313;42.000;21.380;2023-11-21T07:05:38;22.08;;;18.98;;
8550;SDS011;4313;42.000;21.380;2023-11-21T07:08:07;22.53;;;17.37;;
8550;SDS011;4313;42.000;21.380;2023-11-21T07:10:34;20.13;;;17.53;;
8550;SDS011;4313;42.000;21.380;2023-11-21T07:13:02;19.17;;;15.10;;
8550;SDS011;4313;42.000;21.380;2023-11-21T07:15:29;20.93;;;16.70;;
8550;SDS011;4313;42.000;21.380;2023-11-21T07:17:56;26.40;;;19.80;;
8550;SDS011;4313;42.000;21.380;2023-11-21T07:20:23;22.83;;;18.23;;
8550;SDS011;4313;42.000;21.380;2023-11-21T07:22:50;21.13;;;17.23;;
8550;SDS011;4313;42.000;21.380;2023-11-21T07:25:19;24.60;;;18.50;;
8550;SDS011;4313;42.000;21.380;2023-11-21T07:27:47;22.60;;;18.40;;
8550;SDS011;4313;42.000;21.380;2023-11-21T07:30:14;21.67;;;16.93;;
8550;SDS011;4313;42.000;21.380;2023-11-21T07:32:42;39.60;;;28.60;;
8550;SDS011;4313;42.000;21.380;2023-11-21T07:35:11;38.67;;;23.97;;
8550;SDS011;4313;42.000;21.380;2023-11-21T07:37:39;52.70;;;26.33;;
8550;SDS011;4313;42.000;21.380;2023-11-21T07:40:06;58.97;;;35.63;;
8550;SDS011;4313;42.000;21.380;2023-11-21T07:42:38;38.22;;;31.17;;
8550;SDS011;4313;42.000;21.380;2023-11-21T07:45:05;33.42;;;25.02;;
8550;SDS011;4313;42.000;21.380;2023-11-21T07:47:33;26.27;;;19.10;;
8550;SDS011;4313;42.000;21.380;2023-11-21T07:50:01;24.17;;;18.63;;
8550;SDS011;4313;42.000;21.380;2023-11-21T07:52:29;25.60;;;19.80;;
8550;SDS011;4313;42.000;21.380;2023-11-21T07:54:56;24.43;;;19.10;;
8550;SDS011;4313;42.000;21.380;2023-11-21T07:57:23;23.90;;;19.47;;
8550;SDS011;4313;42.000;21.380;2023-11-21T07:59:51;25.03;;;19.43;;
8550;SDS011;4313;42.000;21.380;2023-11-21T08:02:19;24.77;;;21.57;;
8550;SDS011;4313;42.000;21.380;2023-11-21T08:04:46;26.80;;;22.13;;
8550;SDS011;4313;42.000;21.380;2023-11-21T08:07:15;26.73;;;20.83;;
8550;SDS011;4313;42.000;21.380;2023-11-21T08:09:42;32.17;;;26.13;;
8550;SDS011;4313;42.000;21.380;2023-11-21T08:12:09;32.47;;;26.20;;
8550;SDS011;4313;42.000;21.380;2023-11-21T08:14:36;35.23;;;27.63;;
8550;SDS011;4313;42.000;21.380;2023-11-21T08:17:05;40.03;;;30.03;;
8550;SDS011;4313;42.000;21.380;2023-11-21T08:19:32;45.47;;;34.30;;
8550;SDS011;4313;42.000;21.380;2023-11-21T08:21:59;49.87;;;40.07;;
8550;SDS011;4313;42.000;21.380;2023-11-21T08:24:26;61.50;;;49.67;;
8550;SDS011;4313;42.000;21.380;2023-11-21T08:26:53;76.60;;;58.47;;
8550;SDS011;4313;42.000;21.380;2023-11-21T08:29:20;78.47;;;59.87;;
8550;SDS011;4313;42.000;21.380;2023-11-21T08:31:48;79.37;;;62.60;;
8550;SDS011;4313;42.000;21.380;2023-11-21T08:34:16;84.67;;;64.93;;
8550;SDS011;4313;42.000;21.380;2023-11-21T08:36:43;76.70;;;59.07;;
8550;SDS011;4313;42.000;21.380;2023-11-21T08:39:10;85.10;;;69.23;;
8550;SDS011;4313;42.000;21.380;2023-11-21T08:41:41;88.17;;;68.90;;
8550;SDS011;4313;42.000;21.380;2023-11-21T08:44:11;89.00;;;71.93;;
8550;SDS011;4313;42.000;21.380;2023-11-21T08:46:38;95.13;;;74.20;;
8550;SDS011;4313;42.000;21.380;2023-11-21T08:49:07;99.87;;;75.30;;
8550;SDS011;4313;42.000;21.380;2023-11-21T08:51:35;96.27;;;77.73;;
8550;SDS011;4313;42.000;21.380;2023-11-21T08:54:02;91.87;;;75.63;;
8550;SDS011;4313;42.000;21.380;2023-11-21T08:56:32;98.57;;;77.93;;
8550;SDS011;4313;42.000;21.380;2023-11-21T08:59:00;104.43;;;87.37;;
8550;SDS011;4313;42.000;21.380;2023-11-21T09:01:28;112.63;;;92.43;;
8550;SDS011;4313;42.000;21.380;2023-11-21T09:03:56;116.97;;;95.07;;
8550;SDS011;4313;42.000;21.380;2023-11-21T09:06:23;106.30;;;89.23;;
8550;SDS011;4313;42.000;21.380;2023-11-21T09:08:51;113.07;;;89.57;;
8550;SDS011;4313;42.000;21.380;2023-11-21T09:11:18;107.73;;;86.37;;
8550;SDS011;4313;42.000;21.380;2023-11-21T09:13:45;106.80;;;87.37;;
8550;SDS011;4313;42.000;21.380;2023-11-21T09:16:13;107.53;;;85.07;;
8550;SDS011;4313;42.000;21.380;2023-11-21T09:18:40;110.07;;;87.90;;
8550;SDS011;4313;42.000;21.380;2023-11-21T09:21:08;107.43;;;89.20;;
8550;SDS011;4313;42.000;21.380;2023-11-21T09:23:35;119.13;;;91.87;;
8550;SDS011;4313;42.000;21.380;2023-11-21T09:26:04;115.67;;;90.37;;
8550;SDS011;4313;42.000;21.380;2023-11-21T09:28:31;113.23;;;88.97;;
8550;SDS011;4313;42.000;21.380;2023-11-21T09:30:58;106.87;;;85.17;;
8550;SDS011;4313;42.000;21.380;2023-11-21T09:33:28;99.87;;;82.13;;
8550;SDS011;4313;42.000;21.380;2023-11-21T09:35:55;101.23;;;82.03;;
8550;SDS011;4313;42.000;21.380;2023-11-21T09:38:22;102.70;;;80.53;;
8550;SDS011;4313;42.000;21.380;2023-11-21T09:40:49;95.07;;;71.93;;
8550;SDS011;4313;42.000;21.380;2023-11-21T09:43:20;95.87;;;75.63;;
8550;SDS011;4313;42.000;21.380;2023-11-21T09:45:48;102.97;;;76.43;;
8550;SDS011;4313;42.000;21.380;2023-11-21T09:48:18;95.57;;;73.80;;
8550;SDS011;4313;42.000;21.380;2023-11-21T09:50:47;87.17;;;72.10;;
8550;SDS011;4313;42.000;21.380;2023-11-21T09:53:16;91.13;;;71.33;;
8550;SDS011;4313;42.000;21.380;2023-11-21T09:55:46;85.13;;;70.13;;
8550;SDS011;4313;42.000;21.380;2023-11-21T09:58:15;91.17;;;68.07;;
8550;SDS011;4313;42.000;21.380;2023-11-21T10:00:45;80.30;;;64.17;;
8550;SDS011;4313;42.000;21.380;2023-11-21T10:03:12;108.57;;;82.73;;
8550;SDS011;4313;42.000;21.380;2023-11-21T10:05:41;92.10;;;69.60;;
8550;SDS011;4313;42.000;21.380;2023-11-21T10:08:10;87.13;;;65.27;;
8550;SDS011;4313;42.000;21.380;2023-11-21T10:10:38;83.63;;;64.73;;
8550;SDS011;4313;42.000;21.380;2023-11-21T10:13:10;75.63;;;61.90;;
8550;SDS011;4313;42.000;21.380;2023-11-21T10:15:38;87.37;;;65.53;;
8550;SDS011;4313;42.000;21.380;2023-11-21T10:18:11;77.07;;;62.30;;
8550;SDS011;4313;42.000;21.380;2023-11-21T10:20:40;79.77;;;59.33;;
8550;SDS011;4313;42.000;21.380;2023-11-21T10:23:08;75.37;;;59.43;;
8550;SDS011;4313;42.000;21.380;2023-11-21T10:25:36;71.53;;;55.37;;
8550;SDS011;4313;42.000;21.380;2023-11-21T10:28:04;58.97;;;50.27;;
8550;SDS011;4313;42.000;21.380;2023-11-21T10:30:32;66.13;;;53.07;;
8550;SDS011;4313;42.000;21.380;2023-11-21T10:33:02;65.80;;;50.80;;
8550;SDS011;4313;42.000;21.380;2023-11-21T10:35:44;63.43;;;49.83;;
8550;SDS011;4313;42.000;21.380;2023-11-21T10:38:16;57.70;;;47.50;;
8550;SDS011;4313;42.000;21.380;2023-11-21T10:40:43;64.70;;;49.07;;
8550;SDS011;4313;42.000;21.380;2023-11-21T10:43:12;64.53;;;50.97;;
8550;SDS011;4313;42.000;21.380;2023-11-21T10:45:40;61.00;;;48.70;;
8550;SDS011;4313;42.000;21.380;2023-11-21T10:48:07;52.80;;;42.63;;
8550;SDS011;4313;42.000;21.380;2023-11-21T10:50:37;58.53;;;44.03;;
8550;SDS011;4313;42.000;21.380;2023-11-21T10:53:05;59.50;;;47.13;;
8550;SDS011;4313;42.000;21.380;2023-11-21T10:55:33;54.03;;;45.40;;
8550;SDS011;4313;42.000;21.380;2023-11-21T10:58:01;57.87;;;45.73;;
8550;SDS011;4313;42.000;21.380;2023-11-21T11:00:32;55.53;;;45.60;;
8550;SDS011;4313;42.000;21.380;2023-11-21T11:02:59;64.68;;;47.10;;
8550;SDS011;4313;42.000;21.380;2023-11-21T11:05:29;80.18;;;55.15;;
8550;SDS011;4313;42.000;21.380;2023-11-21T11:07:58;70.67;;;50.10;;
8550;SDS011;4313;42.000;21.380;2023-11-21T11:10:28;55.37;;;43.30;;
8550;SDS011;4313;42.000;21.380;2023-11-21T11:12:57;54.03;;;41.00;;
8550;SDS011;4313;42.000;21.380;2023-11-21T11:15:25;55.73;;;41.63;;
8550;SDS011;4313;42.000;21.380;2023-11-21T11:17:52;56.93;;;42.50;;
8550;SDS011;4313;42.000;21.380;2023-11-21T11:20:22;58.50;;;45.03;;
8550;SDS011;4313;42.000;21.380;2023-11-21T11:22:55;60.92;;;48.55;;
8550;SDS011;4313;42.000;21.380;2023-11-21T11:25:38;63.45;;;49.90;;
8550;SDS011;4313;42.000;21.380;2023-11-21T11:28:18;62.65;;;49.97;;
8550;SDS011;4313;42.000;21.380;2023-11-21T11:30:50;66.63;;;46.37;;
8550;SDS011;4313;42.000;21.380;2023-11-21T11:33:31;60.42;;;45.50;;
8550;SDS011;4313;42.000;21.380;2023-11-21T11:36:04;55.22;;;45.33;;
8550;SDS011;4313;42.000;21.380;2023-11-21T11:38:34;57.55;;;42.65;;
8550;SDS011;4313;42.000;21.380;2023-11-21T11:41:03;61.47;;;43.05;;
8550;SDS011;4313;42.000;21.380;2023-11-21T11:43:32;60.28;;;41.88;;
8550;SDS011;4313;42.000;21.380;2023-11-21T11:46:05;53.78;;;41.25;;
8550;SDS011;4313;42.000;21.380;2023-11-21T11:48:34;60.58;;;43.25;;
8550;SDS011;4313;42.000;21.380;2023-11-21T11:51:05;84.15;;;65.80;;
8550;SDS011;4313;42.000;21.380;2023-11-21T11:53:38;65.90;;;50.10;;
8550;SDS011;4313;42.000;21.380;2023-11-21T11:56:23;63.40;;;42.85;;
8550;SDS011;4313;42.000;21.380;2023-11-21T11:58:56;57.75;;;41.72;;
8550;SDS011;4313;42.000;21.380;2023-11-21T12:01:24;59.77;;;42.97;;
8550;SDS011;4313;42.000;21.380;2023-11-21T12:07:00;56.53;;;40.10;;
8550;SDS011;4313;42.000;21.380;2023-11-21T12:09:29;58.03;;;40.13;;
8550;SDS011;4313;42.000;21.380;2023-11-21T12:11:59;56.53;;;39.75;;
8550;SDS011;4313;42.000;21.380;2023-11-21T12:14:26;52.87;;;39.80;;
8550;SDS011;4313;42.000;21.380;2023-11-21T12:16:54;57.60;;;42.17;;
8550;SDS011;4313;42.000;21.380;2023-11-21T12:19:24;60.77;;;41.70;;
8550;SDS011;4313;42.000;21.380;2023-11-21T12:21:51;64.43;;;42.80;;
8550;SDS011;4313;42.000;21.380;2023-11-21T12:24:18;58.63;;;42.03;;
8550;SDS011;4313;42.000;21.380;2023-11-21T12:26:46;66.82;;;44.05;;
8550;SDS011;4313;42.000;21.380;2023-11-21T12:29:14;63.85;;;43.08;;
8550;SDS011;4313;42.000;21.380;2023-11-21T12:31:42;63.97;;;44.72;;
8550;SDS011;4313;42.000;21.380;2023-11-21T12:34:09;63.63;;;44.27;;
8550;SDS011;4313;42.000;21.380;2023-11-21T12:36:37;81.63;;;54.35;;
8550;SDS011;4313;42.000;21.380;2023-11-21T12:39:04;125.43;;;86.83;;
8550;SDS011;4313;42.000;21.380;2023-11-21T12:41:31;80.40;;;52.57;;
8550;SDS011;4313;42.000;21.380;2023-11-21T12:44:01;66.50;;;44.53;;
8550;SDS011;4313;42.000;21.380;2023-11-21T12:46:29;61.90;;;43.97;;
8550;SDS011;4313;42.000;21.380;2023-11-21T12:48:59;61.60;;;43.88;;
8550;SDS011;4313;42.000;21.380;2023-11-21T12:51:26;57.17;;;42.25;;
8550;SDS011;4313;42.000;21.380;2023-11-21T12:53:54;57.53;;;42.55;;
8550;SDS011;4313;42.000;21.380;2023-11-21T12:56:21;53.88;;;41.85;;
8550;SDS011;4313;42.000;21.380;2023-11-21T12:58:49;57.83;;;42.05;;
8550;SDS011;4313;42.000;21.380;2023-11-21T13:01:17;56.38;;;43.75;;
8550;SDS011;4313;42.000;21.380;2023-11-21T13:03:47;62.08;;;44.75;;
8550;SDS011;4313;42.000;21.380;2023-11-21T13:06:17;65.65;;;46.60;;
8550;SDS011;4313;42.000;21.380;2023-11-21T13:08:44;55.92;;;42.95;;
8550;SDS011;4313;42.000;21.380;2023-11-21T13:11:11;62.45;;;45.22;;
8550;SDS011;4313;42.000;21.380;2023-11-21T13:13:40;62.37;;;44.80;;
8550;SDS011;4313;42.000;21.380;2023-11-21T13:16:08;64.20;;;43.87;;
8550;SDS011;4313;42.000;21.380;2023-11-21T13:18:36;66.17;;;45.63;;
8550;SDS011;4313;42.000;21.380;2023-11-21T13:21:07;59.80;;;45.38;;
8550;SDS011;4313;42.000;21.380;2023-11-21T13:23:38;61.08;;;45.38;;
8550;SDS011;4313;42.000;21.380;2023-11-21T13:26:07;65.32;;;47.80;;
8550;SDS011;4313;42.000;21.380;2023-11-21T13:28:35;63.85;;;45.28;;
8550;SDS011;4313;42.000;21.380;2023-11-21T13:31:03;58.35;;;44.03;;
8550;SDS011;4313;42.000;21.380;2023-11-21T13:33:35;65.43;;;44.58;;
8550;SDS011;4313;42.000;21.380;2023-11-21T13:36:03;62.58;;;44.42;;
8550;SDS011;4313;42.000;21.380;2023-11-21T13:38:34;52.00;;;41.17;;
8550;SDS011;4313;42.000;21.380;2023-11-21T13:41:03;60.13;;;45.07;;
8550;SDS011;4313;42.000;21.380;2023-11-21T13:43:33;61.03;;;45.00;;
8550;SDS011;4313;42.000;21.380;2023-11-21T13:46:01;64.47;;;45.25;;
8550;SDS011;4313;42.000;21.380;2023-11-21T13:48:37;71.32;;;50.13;;
8550;SDS011;4313;42.000;21.380;2023-11-21T13:51:08;85.22;;;67.50;;
8550;SDS011;4313;42.000;21.380;2023-11-21T13:53:44;65.88;;;44.85;;
8550;SDS011;4313;42.000;21.380;2023-11-21T13:56:13;61.08;;;46.35;;
8550;SDS011;4313;42.000;21.380;2023-11-21T13:58:44;65.83;;;46.17;;
8550;SDS011;4313;42.000;21.380;2023-11-21T14:01:19;61.20;;;43.53;;
8550;SDS011;4313;42.000;21.380;2023-11-21T14:04:13;60.50;;;41.10;;
8550;SDS011;4313;42.000;21.380;2023-11-21T14:06:45;70.57;;;46.75;;
8550;SDS011;4313;42.000;21.380;2023-11-21T14:09:15;69.57;;;47.53;;
8550;SDS011;4313;42.000;21.380;2023-11-21T14:11:50;66.68;;;48.25;;
8550;SDS011;4313;42.000;21.380;2023-11-21T14:14:18;72.05;;;48.10;;
8550;SDS011;4313;42.000;21.380;2023-11-21T14:16:46;72.68;;;51.28;;
8550;SDS011;4313;42.000;21.380;2023-11-21T14:19:13;76.15;;;51.72;;
8550;SDS011;4313;42.000;21.380;2023-11-21T14:21:43;71.53;;;50.73;;
8550;SDS011;4313;42.000;21.380;2023-11-21T14:24:11;76.88;;;51.53;;
8550;SDS011;4313;42.000;21.380;2023-11-21T14:26:43;76.63;;;55.03;;
8550;SDS011;4313;42.000;21.380;2023-11-21T14:29:12;73.33;;;54.90;;
8550;SDS011;4313;42.000;21.380;2023-11-21T14:31:41;82.10;;;59.13;;
8550;SDS011;4313;42.000;21.380;2023-11-21T14:34:08;88.50;;;58.37;;
8550;SDS011;4313;42.000;21.380;2023-11-21T14:36:37;87.77;;;60.00;;
8550;SDS011;4313;42.000;21.380;2023-11-21T14:39:05;76.43;;;55.00;;
8550;SDS011;4313;42.000;21.380;2023-11-21T14:41:36;101.78;;;61.17;;
8550;SDS011;4313;42.000;21.380;2023-11-21T14:44:06;97.70;;;68.38;;
8550;SDS011;4313;42.000;21.380;2023-11-21T14:46:37;97.27;;;66.97;;